Terminal Aerodrome Forecast
Issued by NWS Rapid City, SD

Home | Current Version | Previous Version | Text Only | Print | Product List | Glossary On
Versions: 1 2 3 4 5 6 7 8 9 10 11 12 13 14 15 16 17 18 19 20 21 22 23 24
000
FTUS43 KUNR 231700
TAFRAP
TAF
KRAP 231720Z 2318/2418 14010KT P6SM SCT100 BKN250
     FM240000 11010KT P6SM VCTS SCT070CB OVC110
     FM240300 08008KT P6SM OVC100 PROB30 2403/2406 P6SM -TSRA
      BKN050CB
     FM241200 32009KT P6SM SCT050=

USA.gov is the U.S. government's official web portal to all federal, state and local government web resources and services.